WXM80 ListenWXM80 Stop

You find our weather info also at:

UK Metoffice

WeatherCloud

Weather Underground

Northeastern Weather Network

AWEKAS

Citizen Weather Observer Program (CWOP)

HAMweather, WeatherForYou, PWS Weather


Weather Underground History page Text

Daily Summary for August 12, 2016 Units:  English    Metric   Both
« Previous Day
Next Day »
Daily Weekly Monthly Yearly Custom
  High: Low: Average:
Temperature: 98.1 °F 73.1 °F 84.1 °F
Dew Point: 83.1 °F 71.5 °F 76.8 °F
Humidity: 97 % 57 % 80 %
Wind Speed: 9.6 mph 0.0 mph 1.8 mph
Wind Gust: 21.9 mph - -
Wind:- - SW
Pressure: 29.95 in 29.79 in -
Precipitation: 0.06 in    
Historical Graphs
 
 
Tabular Data for August 12, 2016
Time Temperature Dew Point Pressure Wind Wind Speed Wind Gust Humidity Rainfall Rate (Hourly)
00:02 78.0 °F 76.1 °F 29.93 in WSW 0.5 mph 1.2 mph 94 % 0.00 in
00:07 78.0 °F 76.1 °F 29.93 in WSW 0.2 mph 1.2 mph 94 % 0.00 in
00:12 78.1 °F 76.2 °F 29.93 in Calm   1.2 mph 94 % 0.00 in
00:17 78.1 °F 76.2 °F 29.93 in WSW 0.5 mph 2.3 mph 94 % 0.00 in
00:22 78.1 °F 76.2 °F 29.93 in Calm   1.2 mph 94 % 0.00 in
00:32 78.2 °F 76.3 °F 29.93 in SW 0.7 mph 2.3 mph 94 % 0.00 in
00:37 78.2 °F 76.6 °F 29.93 in SW 0.7 mph 2.3 mph 95 % 0.00 in
00:42 78.3 °F 76.7 °F 29.93 in WSW 0.9 mph 2.3 mph 95 % 0.00 in
00:47 78.4 °F 76.8 °F 29.94 in WNW 3.0 mph 3.5 mph 95 % 0.00 in
00:53 78.4 °F 76.8 °F 29.94 in SW 4.7 mph 6.9 mph 95 % 0.00 in
00:58 78.5 °F 76.9 °F 29.95 in WSW 2.8 mph 8.1 mph 95 % 0.00 in
01:03 78.5 °F 76.9 °F 29.94 in SSW 4.4 mph 9.2 mph 95 % 0.00 in
01:08 78.4 °F 76.5 °F 29.94 in WSW 2.8 mph 9.0 mph 94 % 0.00 in
01:13 78.3 °F 76.1 °F 29.93 in SW 6.6 mph 10.4 mph 93 % 0.00 in
01:18 78.2 °F 75.7 °F 29.93 in SW 2.8 mph 5.8 mph 92 % 0.00 in
01:23 78.1 °F 75.6 °F 29.94 in SW 3.9 mph 8.1 mph 92 % 0.00 in
01:28 78.0 °F 75.5 °F 29.94 in SW 4.7 mph 7.0 mph 92 % 0.00 in
01:33 77.9 °F 75.4 °F 29.94 in SW 4.6 mph 9.2 mph 92 % 0.00 in
01:38 77.8 °F 75.3 °F 29.94 in WSW 4.3 mph 4.3 mph 92 % 0.01 in
01:44 77.5 °F 75.0 °F 29.94 in WSW 4.2 mph 5.8 mph 92 % 0.01 in
01:49 77.3 °F 74.8 °F 29.94 in WSW 5.8 mph 12.7 mph 92 % 0.02 in
01:54 77.1 °F 74.6 °F 29.93 in West 3.5 mph 5.8 mph 92 % 0.02 in
01:59 76.7 °F 73.9 °F 29.93 in South 3.0 mph 6.9 mph 91 % 0.02 in
02:04 76.4 °F 73.6 °F 29.92 in WSW 2.3 mph 5.8 mph 91 % 0.03 in
02:09 76.2 °F 73.4 °F 29.91 in WNW 0.6 mph 2.3 mph 91 % 0.03 in
02:24 75.7 °F 73.2 °F 29.90 in West 0.5 mph 1.2 mph 92 % 0.04 in
02:29 75.5 °F 73.0 °F 29.89 in SW 1.2 mph 2.3 mph 92 % 0.05 in
02:34 75.4 °F 72.9 °F 29.89 in WSW 0.3 mph 3.5 mph 92 % 0.05 in
02:45 75.1 °F 72.6 °F 29.89 in WSW 0.5 mph 4.0 mph 92 % 0.05 in
02:50 74.9 °F 72.4 °F 29.89 in WSW 0.2 mph 2.3 mph 92 % 0.04 in
02:55 74.8 °F 72.3 °F 29.88 in SSW 0.9 mph 3.5 mph 92 % 0.04 in
03:00 74.7 °F 72.5 °F 29.88 in SW 0.3 mph 2.0 mph 93 % 0.03 in
03:05 74.6 °F 72.4 °F 29.88 in SW 0.3 mph 2.3 mph 93 % 0.03 in
03:10 74.6 °F 72.4 °F 29.89 in SW 0.3 mph 1.2 mph 93 % 0.03 in
03:15 74.5 °F 72.7 °F 29.89 in Calm     94 % 0.03 in
03:20 74.4 °F 72.6 °F 29.89 in Calm   1.2 mph 94 % 0.02 in
03:25 74.4 °F 72.6 °F 29.89 in Calm     94 % 0.02 in
03:30 74.3 °F 72.5 °F 29.89 in Calm     94 % 0.01 in
03:36 74.2 °F 72.4 °F 29.90 in Calm   1.0 mph 94 % 0.01 in
03:41 74.2 °F 72.4 °F 29.89 in SW 0.3 mph 1.2 mph 94 % 0.00 in
03:46 74.1 °F 72.3 °F 29.89 in SW 0.2 mph 1.2 mph 94 % 0.00 in
03:51 74.1 °F 72.3 °F 29.89 in Calm     94 % 0.00 in
03:56 74.0 °F 72.2 °F 29.90 in SW 0.3 mph 2.3 mph 94 % 0.00 in
04:01 74.0 °F 72.2 °F 29.90 in Calm     94 % 0.00 in
04:06 73.9 °F 72.1 °F 29.90 in Calm     94 % 0.00 in
04:11 73.8 °F 72.0 °F 29.90 in WSW 0.5 mph 3.5 mph 94 % 0.00 in
04:16 73.8 °F 72.0 °F 29.90 in Calm   3.5 mph 94 % 0.00 in
04:22 73.7 °F 71.9 °F 29.91 in Calm     94 % 0.00 in
04:27 73.7 °F 71.9 °F 29.91 in Calm     94 % 0.00 in
04:32 73.6 °F 71.8 °F 29.91 in Calm     94 % 0.00 in
04:37 73.5 °F 71.7 °F 29.91 in Calm     94 % 0.00 in
04:47 73.4 °F 71.6 °F 29.91 in Calm     94 % 0.00 in
04:52 73.4 °F 71.6 °F 29.91 in Calm     94 % 0.00 in
04:57 73.3 °F 71.5 °F 29.91 in Calm     94 % 0.00 in
05:02 73.3 °F 71.5 °F 29.91 in Calm   1.0 mph 94 % 0.00 in
05:07 73.3 °F 71.8 °F 29.91 in Calm     95 % 0.00 in
05:13 73.3 °F 71.8 °F 29.91 in Calm     95 % 0.00 in
05:18 73.2 °F 71.7 °F 29.90 in Calm     95 % 0.00 in
05:23 73.2 °F 71.7 °F 29.90 in Calm   1.2 mph 95 % 0.00 in
05:28 73.2 °F 71.7 °F 29.91 in Calm   1.2 mph 95 % 0.00 in
05:38 73.2 °F 71.7 °F 29.90 in WSW 0.1 mph 1.0 mph 95 % 0.00 in
05:43 73.2 °F 71.7 °F 29.91 in Calm     95 % 0.00 in
05:53 73.2 °F 71.7 °F 29.90 in Calm     95 % 0.00 in
05:58 73.2 °F 71.7 °F 29.90 in Calm     95 % 0.00 in
06:04 73.1 °F 71.6 °F 29.90 in Calm     95 % 0.00 in
06:09 73.1 °F 71.6 °F 29.89 in Calm     95 % 0.00 in
06:14 73.1 °F 71.6 °F 29.89 in Calm     95 % 0.00 in
06:19 73.2 °F 71.7 °F 29.89 in Calm     95 % 0.00 in
06:24 73.2 °F 72.0 °F 29.89 in Calm   1.2 mph 96 % 0.00 in
06:29 73.3 °F 72.1 °F 29.89 in Calm   1.2 mph 96 % 0.00 in
06:34 73.4 °F 72.2 °F 29.89 in Calm     96 % 0.00 in
06:39 73.6 °F 72.4 °F 29.89 in Calm     96 % 0.00 in
06:44 73.8 °F 72.9 °F 29.89 in Calm     97 % 0.00 in
06:49 74.0 °F 73.1 °F 29.90 in WSW 0.3 mph 3.5 mph 97 % 0.00 in
06:55 74.2 °F 73.3 °F 29.90 in WSW 0.8 mph 2.3 mph 97 % 0.00 in
07:00 74.4 °F 73.5 °F 29.90 in West 0.7 mph 2.3 mph 97 % 0.00 in
07:05 74.6 °F 73.7 °F 29.90 in Calm     97 % 0.00 in
07:10 74.8 °F 73.9 °F 29.90 in Calm     97 % 0.00 in
07:15 75.0 °F 74.1 °F 29.90 in Calm     97 % 0.00 in
07:20 75.2 °F 74.3 °F 29.89 in SSW 2.6 mph 5.0 mph 97 % 0.00 in
07:25 75.5 °F 74.6 °F 29.90 in WSW 0.1 mph 2.0 mph 97 % 0.00 in
07:30 75.7 °F 74.8 °F 29.90 in WSW 0.9 mph 3.5 mph 97 % 0.00 in
07:35 75.9 °F 75.0 °F 29.90 in WSW 0.1 mph 2.3 mph 97 % 0.00 in
07:40 76.0 °F 75.1 °F 29.90 in SW 3.2 mph 6.0 mph 97 % 0.00 in
07:46 76.2 °F 75.3 °F 29.90 in Calm   4.0 mph 97 % 0.00 in
07:51 76.4 °F 75.4 °F 29.90 in Calm   6.0 mph 97 % 0.00 in
07:56 76.5 °F 75.6 °F 29.90 in Calm   3.0 mph 97 % 0.00 in
08:01 76.7 °F 75.8 °F 29.90 in Calm     97 % 0.00 in
08:06 76.9 °F 76.0 °F 29.89 in Calm     97 % 0.00 in
08:11 77.1 °F 76.2 °F 29.90 in Calm   1.2 mph 97 % 0.00 in
08:16 77.3 °F 76.4 °F 29.90 in SSW 0.2 mph 1.2 mph 97 % 0.00 in
08:21 77.5 °F 76.6 °F 29.90 in SSW 0.1 mph 1.2 mph 97 % 0.00 in
08:26 77.7 °F 76.8 °F 29.89 in WSW 1.1 mph 3.5 mph 97 % 0.00 in
08:31 77.9 °F 77.0 °F 29.90 in SW 0.9 mph 1.2 mph 97 % 0.00 in
08:36 78.2 °F 77.3 °F 29.89 in WSW 1.5 mph 2.0 mph 97 % 0.00 in
08:41 78.4 °F 77.5 °F 29.90 in SSW 3.2 mph 5.0 mph 97 % 0.00 in
08:46 78.6 °F 77.7 °F 29.90 in SW 1.3 mph 3.5 mph 97 % 0.00 in
08:52 78.7 °F 77.8 °F 29.90 in South 0.7 mph 4.6 mph 97 % 0.00 in
08:57 78.9 °F 78.0 °F 29.90 in SW 0.4 mph 4.6 mph 97 % 0.00 in
09:02 79.1 °F 78.2 °F 29.90 in SW 1.5 mph 5.8 mph 97 % 0.00 in
09:12 79.7 °F 78.5 °F 29.90 in SW 4.1 mph 6.9 mph 96 % 0.00 in
09:17 79.9 °F 78.7 °F 29.90 in SSW 2.8 mph 5.8 mph 96 % 0.00 in
09:22 80.2 °F 78.6 °F 29.89 in SSW 2.1 mph 4.6 mph 95 % 0.00 in
09:27 80.5 °F 78.9 °F 29.89 in SW 3.0 mph 3.5 mph 95 % 0.00 in
09:32 80.8 °F 78.9 °F 29.89 in NW 2.3 mph 5.8 mph 94 % 0.00 in
09:37 81.2 °F 79.0 °F 29.89 in South 4.0 mph 9.2 mph 93 % 0.00 in
09:43 81.5 °F 78.9 °F 29.89 in SW 5.6 mph 8.1 mph 92 % 0.00 in
09:48 82.0 °F 79.1 °F 29.89 in WSW 2.4 mph 8.1 mph 91 % 0.00 in
09:53 82.5 °F 79.3 °F 29.89 in SW 5.0 mph 10.4 mph 90 % 0.00 in
09:58 83.1 °F 79.5 °F 29.89 in WNW 5.5 mph 11.5 mph 89 % 0.00 in
10:03 83.8 °F 79.9 °F 29.88 in WSW 4.4 mph 5.0 mph 88 % 0.00 in
10:08 84.4 °F 80.1 °F 29.88 in SW 3.6 mph 5.8 mph 87 % 0.00 in
10:13 85.0 °F 80.3 °F 29.88 in SW 3.8 mph 7.0 mph 86 % 0.00 in
10:18 85.6 °F 79.8 °F 29.88 in SSW 4.3 mph 9.2 mph 83 % 0.00 in
10:23 86.2 °F 80.4 °F 29.88 in WSW 6.6 mph 10.4 mph 83 % 0.00 in
10:28 86.7 °F 80.2 °F 29.87 in SSW 2.9 mph 10.4 mph 81 % 0.00 in
10:34 87.3 °F 80.4 °F 29.88 in WSW 4.9 mph 9.0 mph 80 % 0.00 in
10:39 87.7 °F 80.4 °F 29.87 in WSW 4.5 mph 8.1 mph 79 % 0.00 in
10:44 88.4 °F 81.1 °F 29.87 in SSW 3.0 mph 5.8 mph 79 % 0.00 in
10:49 88.9 °F 80.7 °F 29.87 in WSW 4.1 mph 6.9 mph 77 % 0.00 in
10:54 89.5 °F 80.9 °F 29.87 in SSW 3.9 mph 7.0 mph 76 % 0.00 in
10:59 90.2 °F 80.8 °F 29.87 in West 7.8 mph 10.4 mph 74 % 0.00 in
11:04 90.8 °F 81.8 °F 29.87 in SW 5.1 mph 8.1 mph 75 % 0.00 in
11:09 91.2 °F 80.5 °F 29.87 in WSW 3.0 mph 6.9 mph 71 % 0.00 in
11:14 91.6 °F 81.3 °F 29.87 in WSW 1.1 mph 3.5 mph 72 % 0.00 in
11:19 92.1 °F 80.5 °F 29.86 in West 4.6 mph 8.1 mph 69 % 0.00 in
11:25 92.6 °F 81.4 °F 29.86 in West 0.5 mph 4.6 mph 70 % 0.00 in
11:30 92.9 °F 80.8 °F 29.87 in WSW 5.2 mph 9.2 mph 68 % 0.00 in
11:35 93.3 °F 82.0 °F 29.86 in WSW 2.5 mph 8.1 mph 70 % 0.00 in
11:40 93.8 °F 80.7 °F 29.86 in WSW 1.9 mph 5.8 mph 66 % 0.00 in
11:45 94.4 °F 81.3 °F 29.86 in West 1.2 mph 4.0 mph 66 % 0.00 in
11:50 94.8 °F 81.7 °F 29.86 in WSW 3.5 mph 4.6 mph 66 % 0.00 in
11:55 95.2 °F 81.6 °F 29.86 in West 2.5 mph 6.0 mph 65 % 0.00 in
12:00 95.3 °F 80.7 °F 29.86 in West 4.3 mph 5.8 mph 63 % 0.00 in
12:05 95.0 °F 80.9 °F 29.86 in WSW 1.8 mph 6.9 mph 64 % 0.00 in
12:10 94.9 °F 81.3 °F 29.86 in NNW 2.3 mph 8.1 mph 65 % 0.00 in
12:16 94.9 °F 80.8 °F 29.86 in WNW 5.0 mph 9.0 mph 64 % 0.00 in
12:21 95.3 °F 83.1 °F 29.85 in SW 2.6 mph 4.0 mph 68 % 0.00 in
12:26 95.6 °F 82.4 °F 29.85 in WSW 1.0 mph 5.0 mph 66 % 0.00 in
12:31 96.0 °F 81.4 °F 29.85 in WSW 3.0 mph 8.0 mph 63 % 0.00 in
12:41 96.3 °F 81.2 °F 29.85 in West 6.0 mph 9.0 mph 62 % 0.00 in
12:46 96.4 °F 81.2 °F 29.84 in West 5.0 mph 9.0 mph 62 % 0.00 in
12:51 96.5 °F 80.8 °F 29.84 in WSW 1.9 mph 5.8 mph 61 % 0.00 in
12:56 96.5 °F 80.4 °F 29.84 in West 3.0 mph 9.0 mph 60 % 0.00 in
13:06 96.9 °F 81.2 °F 29.84 in SSW 4.5 mph 5.8 mph 61 % 0.00 in
13:11 97.2 °F 81.0 °F 29.84 in NNW 2.1 mph 6.9 mph 60 % 0.00 in
13:16 97.6 °F 81.4 °F 29.83 in West 3.5 mph 5.8 mph 60 % 0.00 in
13:21 97.8 °F 81.6 °F 29.83 in SSW 2.8 mph 5.8 mph 60 % 0.00 in
13:26 98.0 °F 81.7 °F 29.83 in NW 3.6 mph 10.0 mph 60 % 0.00 in
13:31 98.1 °F 81.3 °F 29.83 in West 5.8 mph 11.0 mph 59 % 0.00 in
13:36 98.0 °F 80.2 °F 29.82 in SW 8.0 mph 11.0 mph 57 % 0.00 in
13:41 97.8 °F 80.5 °F 29.81 in WSW 1.0 mph 4.6 mph 58 % 0.00 in
13:46 97.9 °F 80.1 °F 29.81 in WNW 3.1 mph 5.0 mph 57 % 0.00 in
13:51 97.7 °F 79.9 °F 29.81 in SW 3.2 mph 6.9 mph 57 % 0.00 in
13:57 97.6 °F 80.3 °F 29.81 in SSW 0.4 mph 3.5 mph 58 % 0.00 in
14:02 97.4 °F 80.7 °F 29.81 in WSW 0.9 mph 3.5 mph 59 % 0.00 in
14:07 97.3 °F 81.1 °F 29.81 in WSW 2.8 mph 4.6 mph 60 % 0.00 in
14:17 97.6 °F 82.4 °F 29.80 in WSW 2.7 mph 6.0 mph 62 % 0.00 in
14:22 97.6 °F 81.4 °F 29.81 in SSW 3.1 mph 8.1 mph 60 % 0.00 in
14:27 97.5 °F 81.3 °F 29.81 in SSW 1.1 mph 3.5 mph 60 % 0.00 in
14:32 97.3 °F 81.1 °F 29.81 in SW 1.7 mph 3.5 mph 60 % 0.00 in
14:37 97.0 °F 80.8 °F 29.81 in SSE 2.2 mph 4.6 mph 60 % 0.00 in
14:42 96.5 °F 81.8 °F 29.81 in SW 1.2 mph 3.5 mph 63 % 0.00 in
14:48 96.1 °F 81.0 °F 29.80 in SSW 3.2 mph 6.9 mph 62 % 0.00 in
14:53 96.0 °F 81.8 °F 29.80 in SW 4.7 mph 6.9 mph 64 % 0.00 in
14:58 96.2 °F 81.6 °F 29.80 in West 1.2 mph 3.5 mph 63 % 0.00 in
15:03 96.4 °F 80.7 °F 29.80 in SSW 3.1 mph 6.9 mph 61 % 0.00 in
15:08 96.3 °F 80.7 °F 29.80 in SE 2.0 mph 5.8 mph 61 % 0.00 in
15:13 96.1 °F 81.5 °F 29.80 in South 1.8 mph 5.8 mph 63 % 0.00 in
15:18 95.8 °F 80.2 °F 29.80 in SW 3.2 mph 5.0 mph 61 % 0.00 in
15:23 95.4 °F 80.3 °F 29.80 in WSW 1.0 mph 4.0 mph 62 % 0.00 in
15:28 95.1 °F 81.0 °F 29.80 in West 3.8 mph 5.8 mph 64 % 0.00 in
15:33 95.2 °F 81.1 °F 29.80 in SE 1.9 mph 3.5 mph 64 % 0.00 in
15:39 95.3 °F 81.2 °F 29.80 in SE 1.3 mph 2.3 mph 64 % 0.00 in
15:44 95.3 °F 81.2 °F 29.80 in SSW 0.5 mph 3.5 mph 64 % 0.00 in
15:49 95.0 °F 79.9 °F 29.80 in SSW 3.1 mph 6.9 mph 62 % 0.00 in
15:54 94.8 °F 80.7 °F 29.80 in SW 1.1 mph 3.5 mph 64 % 0.00 in
15:59 94.7 °F 80.6 °F 29.79 in SW 3.5 mph 4.6 mph 64 % 0.00 in
16:04 94.6 °F 81.0 °F 29.79 in SW 3.5 mph 5.8 mph 65 % 0.00 in
16:09 94.6 °F 80.5 °F 29.79 in SSE 0.6 mph 2.0 mph 64 % 0.00 in
16:14 94.6 °F 80.0 °F 29.79 in SSE 2.2 mph 6.9 mph 63 % 0.00 in
16:19 94.7 °F 80.1 °F 29.79 in WSW 6.3 mph 11.0 mph 63 % 0.00 in
16:24 94.8 °F 79.7 °F 29.79 in SSW 2.8 mph 4.6 mph 62 % 0.00 in
16:30 94.8 °F 80.2 °F 29.79 in SW 3.1 mph 3.5 mph 63 % 0.00 in
16:35 94.8 °F 79.7 °F 29.79 in SW 1.5 mph 9.2 mph 62 % 0.00 in
16:40 94.7 °F 80.1 °F 29.79 in SSE 1.8 mph 8.1 mph 63 % 0.00 in
16:45 94.6 °F 79.6 °F 29.79 in WSW 1.6 mph 3.5 mph 62 % 0.00 in
16:50 94.6 °F 80.0 °F 29.80 in SW 0.4 mph 2.0 mph 63 % 0.00 in
16:55 94.4 °F 80.3 °F 29.80 in WSW 0.3 mph 2.3 mph 64 % 0.00 in
17:00 94.3 °F 79.8 °F 29.80 in SW 1.6 mph 3.0 mph 63 % 0.00 in
17:05 94.1 °F 79.6 °F 29.80 in WNW 2.6 mph 4.6 mph 63 % 0.00 in
17:10 94.1 °F 80.5 °F 29.80 in WSW 2.6 mph 3.5 mph 65 % 0.00 in
17:15 94.0 °F 80.9 °F 29.80 in WNW 0.1 mph 1.2 mph 66 % 0.00 in
17:21 93.8 °F 80.3 °F 29.80 in Calm   2.0 mph 65 % 0.00 in
17:26 93.8 °F 79.8 °F 29.79 in WSW 2.0 mph 9.0 mph 64 % 0.00 in
17:31 94.0 °F 79.9 °F 29.79 in SW 3.0 mph 7.0 mph 64 % 0.00 in
17:36 94.1 °F 80.0 °F 29.79 in WSW 1.0 mph 7.0 mph 64 % 0.00 in
17:41 94.0 °F 79.5 °F 29.79 in SSW 3.5 mph 3.5 mph 63 % 0.00 in
17:46 94.0 °F 79.5 °F 29.79 in SW 1.0 mph 7.0 mph 63 % 0.00 in
17:51 93.8 °F 79.8 °F 29.79 in SW 3.0 mph 8.0 mph 64 % 0.00 in
17:56 93.7 °F 79.7 °F 29.80 in Calm   1.0 mph 64 % 0.00 in
18:01 93.4 °F 79.9 °F 29.80 in SW 0.2 mph 1.2 mph 65 % 0.00 in
18:06 93.2 °F 79.2 °F 29.80 in SW 0.1 mph 2.3 mph 64 % 0.00 in
18:11 92.9 °F 79.4 °F 29.81 in SSW 1.5 mph 3.5 mph 65 % 0.00 in
18:16 92.6 °F 79.1 °F 29.81 in WSW 1.6 mph 3.5 mph 65 % 0.00 in
18:21 92.3 °F 79.3 °F 29.81 in South 1.6 mph 3.5 mph 66 % 0.00 in
18:26 91.9 °F 78.9 °F 29.81 in WSW 1.9 mph 4.6 mph 66 % 0.00 in
18:31 91.7 °F 79.2 °F 29.81 in South 0.6 mph 3.5 mph 67 % 0.00 in
18:36 91.3 °F 79.3 °F 29.81 in SSE 0.6 mph 2.3 mph 68 % 0.00 in
18:41 91.0 °F 79.0 °F 29.80 in SSW 1.1 mph 2.3 mph 68 % 0.00 in
18:47 90.7 °F 79.1 °F 29.81 in SSW 2.0 mph 3.5 mph 69 % 0.00 in
18:52 90.5 °F 78.9 °F 29.80 in SW 2.0 mph 2.0 mph 69 % 0.00 in
18:57 90.2 °F 78.6 °F 29.81 in WSW 1.4 mph 4.6 mph 69 % 0.00 in
19:02 89.9 °F 78.4 °F 29.81 in WSW 0.8 mph 5.8 mph 69 % 0.00 in
19:07 89.6 °F 78.5 °F 29.81 in SW 0.5 mph 3.5 mph 70 % 0.00 in
19:12 89.3 °F 78.2 °F 29.82 in SSW 0.9 mph 3.5 mph 70 % 0.00 in
19:22 88.8 °F 78.2 °F 29.82 in South 0.6 mph 2.3 mph 71 % 0.00 in
19:27 88.6 °F 78.0 °F 29.82 in WSW 1.2 mph 4.6 mph 71 % 0.00 in
19:32 88.4 °F 77.8 °F 29.83 in SSW 1.8 mph 9.2 mph 71 % 0.00 in
19:38 88.3 °F 77.7 °F 29.83 in SW 3.1 mph 3.5 mph 71 % 0.00 in
19:43 88.1 °F 77.5 °F 29.83 in SW 3.1 mph 7.0 mph 71 % 0.00 in
19:48 87.8 °F 74.6 °F 29.83 in West 9.6 mph 21.9 mph 65 % 0.00 in
19:58 87.0 °F 72.4 °F 29.82 in SW 6.9 mph 12.7 mph 62 % 0.00 in
20:03 86.4 °F 73.7 °F 29.82 in SW 4.0 mph 9.2 mph 66 % 0.00 in
20:08 85.5 °F 73.3 °F 29.82 in SW 4.1 mph 8.1 mph 67 % 0.00 in
20:13 84.7 °F 73.0 °F 29.82 in SW 4.5 mph 6.9 mph 68 % 0.00 in
20:18 83.9 °F 72.6 °F 29.82 in WSW 4.4 mph 8.0 mph 69 % 0.00 in
20:23 83.2 °F 72.8 °F 29.82 in SW 2.9 mph 4.6 mph 71 % 0.00 in
20:29 82.8 °F 73.3 °F 29.83 in WSW 3.2 mph 9.2 mph 73 % 0.00 in
20:34 82.3 °F 73.2 °F 29.83 in WSW 5.2 mph 9.2 mph 74 % 0.00 in
20:39 81.9 °F 73.2 °F 29.84 in WSW 2.7 mph 5.8 mph 75 % 0.00 in
20:44 81.5 °F 73.6 °F 29.84 in WSW 2.1 mph 10.4 mph 77 % 0.00 in
20:49 81.2 °F 73.7 °F 29.84 in WSW 1.7 mph 6.9 mph 78 % 0.00 in
20:54 81.0 °F 73.9 °F 29.84 in SW 1.8 mph 2.3 mph 79 % 0.00 in
20:59 80.7 °F 74.0 °F 29.84 in SW 2.3 mph 3.5 mph 80 % 0.00 in
21:04 80.5 °F 74.1 °F 29.85 in WSW 0.3 mph 2.3 mph 81 % 0.00 in
21:09 80.3 °F 74.3 °F 29.85 in SSW 1.3 mph 3.5 mph 82 % 0.00 in
21:14 80.1 °F 74.5 °F 29.85 in WSW 1.0 mph 3.5 mph 83 % 0.00 in
21:19 79.8 °F 74.2 °F 29.85 in WSW 1.8 mph 3.5 mph 83 % 0.00 in
21:24 79.7 °F 74.1 °F 29.85 in WSW 1.8 mph 2.3 mph 83 % 0.00 in
21:29 79.5 °F 73.9 °F 29.85 in SW 1.0 mph 3.5 mph 83 % 0.00 in
21:35 79.4 °F 74.1 °F 29.85 in SSW 2.8 mph 4.0 mph 84 % 0.00 in
21:40 79.3 °F 74.0 °F 29.85 in SSW 0.2 mph 2.3 mph 84 % 0.00 in
21:45 79.3 °F 74.0 °F 29.85 in Calm   1.2 mph 84 % 0.00 in
21:50 79.3 °F 74.0 °F 29.85 in SSW 0.3 mph 1.2 mph 84 % 0.00 in
21:55 79.2 °F 74.3 °F 29.85 in Calm   1.2 mph 85 % 0.00 in
22:00 79.2 °F 74.3 °F 29.85 in Calm     85 % 0.00 in
22:05 79.3 °F 74.4 °F 29.85 in SSW 0.1 mph 1.2 mph 85 % 0.00 in
22:10 79.3 °F 74.4 °F 29.85 in West 1.6 mph 3.5 mph 85 % 0.00 in
22:15 79.3 °F 74.4 °F 29.85 in Calm     85 % 0.00 in
22:25 79.3 °F 74.4 °F 29.85 in Calm     85 % 0.00 in
22:30 79.3 °F 74.4 °F 29.86 in Calm   1.0 mph 85 % 0.00 in
22:35 79.3 °F 74.4 °F 29.86 in Calm   1.0 mph 85 % 0.00 in
22:40 79.3 °F 74.4 °F 29.86 in Calm     85 % 0.00 in
22:46 79.3 °F 74.4 °F 29.87 in Calm     85 % 0.00 in
22:56 79.2 °F 74.3 °F 29.87 in Calm   1.0 mph 85 % 0.00 in
23:01 79.2 °F 74.3 °F 29.86 in Calm     85 % 0.00 in
23:05 79.2 °F 74.3 °F 29.87 in Calm   1.0 mph 85 % 0.00 in
23:10 79.1 °F 74.2 °F 29.86 in Calm     85 % 0.00 in
23:15 79.1 °F 74.2 °F 29.87 in Calm     85 % 0.00 in
23:20 79.0 °F 74.5 °F 29.87 in Calm   1.0 mph 86 % 0.00 in
23:26 79.0 °F 74.5 °F 29.87 in Calm   2.0 mph 86 % 0.00 in
23:30 78.9 °F 74.4 °F 29.87 in Calm     86 % 0.00 in
23:35 78.9 °F 74.4 °F 29.87 in Calm   2.0 mph 86 % 0.00 in
23:45 78.9 °F 74.7 °F 29.87 in Calm   1.0 mph 87 % 0.00 in
23:50 78.9 °F 74.7 °F 29.87 in Calm   1.0 mph 87 % 0.00 in
23:55 78.9 °F 74.7 °F 29.86 in Calm   2.0 mph 87 % 0.00 in
Crab Meadow Weather
Compliments of Weather Underground - 3 mb

Script developed by  Jim McMurry - jmcmurry@mwt.net Adapted for the template by  Wim van der Kuil - Leuven-Template.eu

Weather Terms: Rain/Showers - Rain is a nearly steady and uniform fall of precipitation over an area. Showers are intermittent and/or scattered convective rainfall of varying intensity.